sensor_id;sensor_type;location;lat;lon;timestamp;P1;durP1;ratioP1;P2;durP2;ratioP2
6017;SDS011;3037;51.068;13.780;2023-04-21T00:02:09;33.80;;;21.20;;
6017;SDS011;3037;51.068;13.780;2023-04-21T00:04:39;37.83;;;21.57;;
6017;SDS011;3037;51.068;13.780;2023-04-21T00:07:05;36.47;;;21.73;;
6017;SDS011;3037;51.068;13.780;2023-04-21T00:09:30;50.57;;;25.83;;
6017;SDS011;3037;51.068;13.780;2023-04-21T00:11:56;48.23;;;23.57;;
6017;SDS011;3037;51.068;13.780;2023-04-21T00:14:22;42.80;;;26.00;;
6017;SDS011;3037;51.068;13.780;2023-04-21T00:16:47;43.13;;;23.93;;
6017;SDS011;3037;51.068;13.780;2023-04-21T00:19:16;38.63;;;23.97;;
6017;SDS011;3037;51.068;13.780;2023-04-21T00:21:45;57.23;;;27.30;;
6017;SDS011;3037;51.068;13.780;2023-04-21T00:24:10;48.30;;;23.40;;
6017;SDS011;3037;51.068;13.780;2023-04-21T00:26:36;47.67;;;26.80;;
6017;SDS011;3037;51.068;13.780;2023-04-21T00:29:01;50.53;;;24.13;;
6017;SDS011;3037;51.068;13.780;2023-04-21T00:31:27;45.70;;;26.33;;
6017;SDS011;3037;51.068;13.780;2023-04-21T00:33:53;52.20;;;23.57;;
6017;SDS011;3037;51.068;13.780;2023-04-21T00:36:19;33.93;;;19.93;;
6017;SDS011;3037;51.068;13.780;2023-04-21T00:38:45;32.10;;;20.10;;
6017;SDS011;3037;51.068;13.780;2023-04-21T00:41:10;32.13;;;20.17;;
6017;SDS011;3037;51.068;13.780;2023-04-21T00:43:36;44.63;;;22.83;;
6017;SDS011;3037;51.068;13.780;2023-04-21T00:46:01;29.90;;;19.07;;
6017;SDS011;3037;51.068;13.780;2023-04-21T00:48:27;35.50;;;20.37;;
6017;SDS011;3037;51.068;13.780;2023-04-21T00:50:52;26.93;;;18.63;;
6017;SDS011;3037;51.068;13.780;2023-04-21T00:53:18;30.33;;;17.80;;
6017;SDS011;3037;51.068;13.780;2023-04-21T00:55:44;25.87;;;17.33;;
6017;SDS011;3037;51.068;13.780;2023-04-21T00:58:10;35.90;;;21.13;;
6017;SDS011;3037;51.068;13.780;2023-04-21T01:00:36;34.40;;;20.10;;
6017;SDS011;3037;51.068;13.780;2023-04-21T01:03:03;42.13;;;20.93;;
6017;SDS011;3037;51.068;13.780;2023-04-21T01:05:30;37.70;;;23.70;;
6017;SDS011;3037;51.068;13.780;2023-04-21T01:07:56;38.93;;;24.10;;
6017;SDS011;3037;51.068;13.780;2023-04-21T01:10:21;39.03;;;24.37;;
6017;SDS011;3037;51.068;13.780;2023-04-21T01:12:47;49.80;;;26.27;;
6017;SDS011;3037;51.068;13.780;2023-04-21T01:15:13;43.17;;;27.53;;
6017;SDS011;3037;51.068;13.780;2023-04-21T01:17:40;49.67;;;29.40;;
6017;SDS011;3037;51.068;13.780;2023-04-21T01:20:09;49.03;;;29.10;;
6017;SDS011;3037;51.068;13.780;2023-04-21T01:22:36;54.77;;;30.50;;
6017;SDS011;3037;51.068;13.780;2023-04-21T01:25:02;55.47;;;27.60;;
6017;SDS011;3037;51.068;13.780;2023-04-21T01:27:29;50.27;;;27.80;;
6017;SDS011;3037;51.068;13.780;2023-04-21T01:29:55;45.23;;;26.77;;
6017;SDS011;3037;51.068;13.780;2023-04-21T01:32:22;49.60;;;27.87;;
6017;SDS011;3037;51.068;13.780;2023-04-21T01:34:50;43.63;;;26.90;;
6017;SDS011;3037;51.068;13.780;2023-04-21T01:37:17;50.30;;;27.47;;
6017;SDS011;3037;51.068;13.780;2023-04-21T01:39:46;40.93;;;27.27;;
6017;SDS011;3037;51.068;13.780;2023-04-21T01:42:16;43.13;;;23.30;;
6017;SDS011;3037;51.068;13.780;2023-04-21T01:44:42;40.73;;;24.70;;
6017;SDS011;3037;51.068;13.780;2023-04-21T01:47:07;41.87;;;25.37;;
6017;SDS011;3037;51.068;13.780;2023-04-21T01:49:33;40.20;;;24.90;;
6017;SDS011;3037;51.068;13.780;2023-04-21T01:51:59;44.00;;;26.67;;
6017;SDS011;3037;51.068;13.780;2023-04-21T01:54:24;54.53;;;25.33;;
6017;SDS011;3037;51.068;13.780;2023-04-21T01:56:50;42.90;;;25.10;;
6017;SDS011;3037;51.068;13.780;2023-04-21T01:59:15;41.27;;;23.70;;
6017;SDS011;3037;51.068;13.780;2023-04-21T02:01:41;34.43;;;20.13;;
6017;SDS011;3037;51.068;13.780;2023-04-21T02:04:07;44.20;;;23.53;;
6017;SDS011;3037;51.068;13.780;2023-04-21T02:06:32;34.50;;;21.87;;
6017;SDS011;3037;51.068;13.780;2023-04-21T02:08:58;31.70;;;21.80;;
6017;SDS011;3037;51.068;13.780;2023-04-21T02:11:24;45.53;;;24.90;;
6017;SDS011;3037;51.068;13.780;2023-04-21T02:13:51;42.83;;;24.13;;
6017;SDS011;3037;51.068;13.780;2023-04-21T02:16:17;46.93;;;25.70;;
6017;SDS011;3037;51.068;13.780;2023-04-21T02:18:44;42.40;;;22.87;;
6017;SDS011;3037;51.068;13.780;2023-04-21T02:21:10;38.20;;;22.90;;
6017;SDS011;3037;51.068;13.780;2023-04-21T02:23:35;40.43;;;23.77;;
6017;SDS011;3037;51.068;13.780;2023-04-21T02:26:01;40.50;;;23.70;;
6017;SDS011;3037;51.068;13.780;2023-04-21T02:28:26;37.50;;;22.07;;
6017;SDS011;3037;51.068;13.780;2023-04-21T02:30:52;40.23;;;22.60;;
6017;SDS011;3037;51.068;13.780;2023-04-21T02:33:17;36.43;;;22.60;;
6017;SDS011;3037;51.068;13.780;2023-04-21T02:35:43;51.83;;;27.00;;
6017;SDS011;3037;51.068;13.780;2023-04-21T02:38:08;38.00;;;23.23;;
6017;SDS011;3037;51.068;13.780;2023-04-21T02:40:34;44.47;;;25.53;;
6017;SDS011;3037;51.068;13.780;2023-04-21T02:43:00;40.90;;;24.73;;
6017;SDS011;3037;51.068;13.780;2023-04-21T02:45:26;41.00;;;25.63;;
6017;SDS011;3037;51.068;13.780;2023-04-21T02:47:52;41.37;;;24.77;;
6017;SDS011;3037;51.068;13.780;2023-04-21T02:50:18;37.87;;;24.27;;
6017;SDS011;3037;51.068;13.780;2023-04-21T02:52:44;43.90;;;25.27;;
6017;SDS011;3037;51.068;13.780;2023-04-21T02:55:10;32.23;;;22.10;;
6017;SDS011;3037;51.068;13.780;2023-04-21T02:57:35;37.03;;;23.30;;
6017;SDS011;3037;51.068;13.780;2023-04-21T03:00:01;36.10;;;22.30;;
6017;SDS011;3037;51.068;13.780;2023-04-21T03:02:26;38.67;;;21.77;;
6017;SDS011;3037;51.068;13.780;2023-04-21T03:04:52;33.47;;;20.80;;
6017;SDS011;3037;51.068;13.780;2023-04-21T03:07:18;30.93;;;19.60;;
6017;SDS011;3037;51.068;13.780;2023-04-21T03:09:43;35.77;;;22.57;;
6017;SDS011;3037;51.068;13.780;2023-04-21T03:12:09;30.63;;;21.60;;
6017;SDS011;3037;51.068;13.780;2023-04-21T03:14:34;28.50;;;18.43;;
6017;SDS011;3037;51.068;13.780;2023-04-21T03:17:00;31.70;;;21.20;;
6017;SDS011;3037;51.068;13.780;2023-04-21T03:19:25;31.73;;;21.30;;
6017;SDS011;3037;51.068;13.780;2023-04-21T03:21:51;31.63;;;21.83;;
6017;SDS011;3037;51.068;13.780;2023-04-21T03:24:16;41.20;;;23.57;;
6017;SDS011;3037;51.068;13.780;2023-04-21T03:26:42;31.07;;;21.00;;
6017;SDS011;3037;51.068;13.780;2023-04-21T03:29:07;38.33;;;23.50;;
6017;SDS011;3037;51.068;13.780;2023-04-21T03:31:33;38.70;;;22.33;;
6017;SDS011;3037;51.068;13.780;2023-04-21T03:33:58;43.50;;;22.90;;
6017;SDS011;3037;51.068;13.780;2023-04-21T03:36:24;34.17;;;22.07;;
6017;SDS011;3037;51.068;13.780;2023-04-21T03:38:49;30.60;;;21.30;;
6017;SDS011;3037;51.068;13.780;2023-04-21T03:41:15;30.50;;;20.57;;
6017;SDS011;3037;51.068;13.780;2023-04-21T03:43:40;30.30;;;20.97;;
6017;SDS011;3037;51.068;13.780;2023-04-21T03:46:06;34.67;;;21.70;;
6017;SDS011;3037;51.068;13.780;2023-04-21T03:48:31;35.63;;;21.70;;
6017;SDS011;3037;51.068;13.780;2023-04-21T03:50:57;35.13;;;21.07;;
6017;SDS011;3037;51.068;13.780;2023-04-21T03:53:22;29.87;;;20.53;;
6017;SDS011;3037;51.068;13.780;2023-04-21T03:55:51;30.50;;;19.80;;
6017;SDS011;3037;51.068;13.780;2023-04-21T03:58:16;37.80;;;20.27;;
6017;SDS011;3037;51.068;13.780;2023-04-21T04:00:42;30.80;;;19.70;;
6017;SDS011;3037;51.068;13.780;2023-04-21T04:03:08;30.17;;;20.40;;
6017;SDS011;3037;51.068;13.780;2023-04-21T04:05:36;28.90;;;19.67;;
6017;SDS011;3037;51.068;13.780;2023-04-21T04:08:02;29.03;;;19.00;;
6017;SDS011;3037;51.068;13.780;2023-04-21T04:10:27;36.30;;;20.97;;
6017;SDS011;3037;51.068;13.780;2023-04-21T04:12:53;37.07;;;19.37;;
6017;SDS011;3037;51.068;13.780;2023-04-21T04:15:19;32.67;;;17.93;;
6017;SDS011;3037;51.068;13.780;2023-04-21T04:17:44;28.80;;;18.47;;
6017;SDS011;3037;51.068;13.780;2023-04-21T04:20:10;30.57;;;18.20;;
6017;SDS011;3037;51.068;13.780;2023-04-21T04:22:36;26.93;;;17.03;;
6017;SDS011;3037;51.068;13.780;2023-04-21T04:25:02;23.73;;;15.60;;
6017;SDS011;3037;51.068;13.780;2023-04-21T04:27:28;24.67;;;15.40;;
6017;SDS011;3037;51.068;13.780;2023-04-21T04:29:53;27.30;;;16.40;;
6017;SDS011;3037;51.068;13.780;2023-04-21T04:32:18;30.73;;;16.47;;
6017;SDS011;3037;51.068;13.780;2023-04-21T04:34:44;31.53;;;17.40;;
6017;SDS011;3037;51.068;13.780;2023-04-21T04:37:10;36.97;;;19.70;;
6017;SDS011;3037;51.068;13.780;2023-04-21T04:39:37;26.40;;;16.37;;
6017;SDS011;3037;51.068;13.780;2023-04-21T04:42:05;28.53;;;17.07;;
6017;SDS011;3037;51.068;13.780;2023-04-21T04:44:32;26.40;;;16.20;;
6017;SDS011;3037;51.068;13.780;2023-04-21T04:46:58;27.10;;;18.27;;
6017;SDS011;3037;51.068;13.780;2023-04-21T04:49:23;27.23;;;16.40;;
6017;SDS011;3037;51.068;13.780;2023-04-21T04:51:49;29.20;;;17.27;;
6017;SDS011;3037;51.068;13.780;2023-04-21T04:54:15;25.43;;;17.37;;
6017;SDS011;3037;51.068;13.780;2023-04-21T04:56:41;34.27;;;15.00;;
6017;SDS011;3037;51.068;13.780;2023-04-21T04:59:06;32.40;;;15.43;;
6017;SDS011;3037;51.068;13.780;2023-04-21T05:01:32;26.13;;;16.90;;
6017;SDS011;3037;51.068;13.780;2023-04-21T05:03:57;25.17;;;17.57;;
6017;SDS011;3037;51.068;13.780;2023-04-21T05:06:23;31.87;;;17.50;;
6017;SDS011;3037;51.068;13.780;2023-04-21T05:08:49;27.17;;;16.90;;
6017;SDS011;3037;51.068;13.780;2023-04-21T05:11:14;21.00;;;15.23;;
6017;SDS011;3037;51.068;13.780;2023-04-21T05:13:40;26.07;;;15.17;;
6017;SDS011;3037;51.068;13.780;2023-04-21T05:16:05;21.13;;;15.83;;
6017;SDS011;3037;51.068;13.780;2023-04-21T05:18:31;21.63;;;15.60;;
6017;SDS011;3037;51.068;13.780;2023-04-21T05:20:57;28.40;;;14.87;;
6017;SDS011;3037;51.068;13.780;2023-04-21T05:23:22;28.93;;;17.33;;
6017;SDS011;3037;51.068;13.780;2023-04-21T05:25:48;26.30;;;14.57;;
6017;SDS011;3037;51.068;13.780;2023-04-21T05:28:13;20.60;;;15.63;;
6017;SDS011;3037;51.068;13.780;2023-04-21T05:30:39;24.80;;;15.63;;
6017;SDS011;3037;51.068;13.780;2023-04-21T05:33:05;21.13;;;15.50;;
6017;SDS011;3037;51.068;13.780;2023-04-21T05:35:31;26.63;;;15.00;;
6017;SDS011;3037;51.068;13.780;2023-04-21T05:37:57;30.53;;;16.33;;
6017;SDS011;3037;51.068;13.780;2023-04-21T05:40:22;18.10;;;13.30;;
6017;SDS011;3037;51.068;13.780;2023-04-21T05:42:48;23.97;;;16.40;;
6017;SDS011;3037;51.068;13.780;2023-04-21T05:45:13;18.00;;;14.30;;
6017;SDS011;3037;51.068;13.780;2023-04-21T05:47:39;22.10;;;14.53;;
6017;SDS011;3037;51.068;13.780;2023-04-21T05:50:05;24.00;;;13.23;;
6017;SDS011;3037;51.068;13.780;2023-04-21T05:52:31;29.10;;;16.07;;
6017;SDS011;3037;51.068;13.780;2023-04-21T05:54:57;26.10;;;13.97;;
6017;SDS011;3037;51.068;13.780;2023-04-21T05:57:23;22.07;;;15.07;;
6017;SDS011;3037;51.068;13.780;2023-04-21T05:59:49;26.80;;;15.83;;
6017;SDS011;3037;51.068;13.780;2023-04-21T06:02:14;22.20;;;14.83;;
6017;SDS011;3037;51.068;13.780;2023-04-21T06:04:40;18.47;;;13.87;;
6017;SDS011;3037;51.068;13.780;2023-04-21T06:07:06;15.97;;;12.03;;
6017;SDS011;3037;51.068;13.780;2023-04-21T06:09:33;15.33;;;11.10;;
6017;SDS011;3037;51.068;13.780;2023-04-21T06:12:00;14.33;;;11.43;;
6017;SDS011;3037;51.068;13.780;2023-04-21T06:14:26;14.60;;;10.13;;
6017;SDS011;3037;51.068;13.780;2023-04-21T06:16:51;14.80;;;10.87;;
6017;SDS011;3037;51.068;13.780;2023-04-21T06:19:17;11.73;;;10.53;;
6017;SDS011;3037;51.068;13.780;2023-04-21T06:21:42;16.00;;;10.83;;
6017;SDS011;3037;51.068;13.780;2023-04-21T06:24:08;13.30;;;10.70;;
6017;SDS011;3037;51.068;13.780;2023-04-21T06:26:33;13.33;;;9.70;;
6017;SDS011;3037;51.068;13.780;2023-04-21T06:28:59;16.20;;;10.50;;
6017;SDS011;3037;51.068;13.780;2023-04-21T06:31:25;13.37;;;10.83;;
6017;SDS011;3037;51.068;13.780;2023-04-21T06:33:51;18.63;;;11.00;;
6017;SDS011;3037;51.068;13.780;2023-04-21T06:36:16;15.20;;;11.00;;
6017;SDS011;3037;51.068;13.780;2023-04-21T06:38:42;19.33;;;10.83;;
6017;SDS011;3037;51.068;13.780;2023-04-21T06:41:07;31.27;;;13.40;;
6017;SDS011;3037;51.068;13.780;2023-04-21T06:43:33;28.57;;;18.40;;
6017;SDS011;3037;51.068;13.780;2023-04-21T06:45:59;26.27;;;15.30;;
6017;SDS011;3037;51.068;13.780;2023-04-21T06:48:25;11.53;;;10.40;;
6017;SDS011;3037;51.068;13.780;2023-04-21T06:50:51;13.43;;;10.37;;
6017;SDS011;3037;51.068;13.780;2023-04-21T06:53:17;21.10;;;14.43;;
6017;SDS011;3037;51.068;13.780;2023-04-21T06:55:42;13.17;;;10.63;;
6017;SDS011;3037;51.068;13.780;2023-04-21T06:58:08;18.00;;;10.40;;
6017;SDS011;3037;51.068;13.780;2023-04-21T07:00:34;13.53;;;10.73;;
6017;SDS011;3037;51.068;13.780;2023-04-21T07:02:59;15.17;;;10.63;;
6017;SDS011;3037;51.068;13.780;2023-04-21T07:05:25;15.70;;;10.77;;
6017;SDS011;3037;51.068;13.780;2023-04-21T07:07:50;17.97;;;12.03;;
6017;SDS011;3037;51.068;13.780;2023-04-21T07:10:17;19.90;;;12.40;;
6017;SDS011;3037;51.068;13.780;2023-04-21T07:12:44;14.73;;;10.60;;
6017;SDS011;3037;51.068;13.780;2023-04-21T07:15:10;11.63;;;10.43;;
6017;SDS011;3037;51.068;13.780;2023-04-21T07:17:36;15.20;;;10.70;;
6017;SDS011;3037;51.068;13.780;2023-04-21T07:20:01;18.67;;;10.53;;
6017;SDS011;3037;51.068;13.780;2023-04-21T07:22:27;15.03;;;11.43;;
6017;SDS011;3037;51.068;13.780;2023-04-21T07:24:53;26.93;;;11.03;;
6017;SDS011;3037;51.068;13.780;2023-04-21T07:27:18;12.57;;;11.20;;
6017;SDS011;3037;51.068;13.780;2023-04-21T07:29:44;16.60;;;11.50;;
6017;SDS011;3037;51.068;13.780;2023-04-21T07:32:09;15.37;;;10.20;;
6017;SDS011;3037;51.068;13.780;2023-04-21T07:34:35;23.00;;;9.80;;
6017;SDS011;3037;51.068;13.780;2023-04-21T07:37:00;14.90;;;9.60;;
6017;SDS011;3037;51.068;13.780;2023-04-21T07:39:26;16.63;;;9.27;;
6017;SDS011;3037;51.068;13.780;2023-04-21T07:41:51;15.13;;;8.80;;
6017;SDS011;3037;51.068;13.780;2023-04-21T07:44:17;17.07;;;10.30;;
6017;SDS011;3037;51.068;13.780;2023-04-21T07:46:43;21.13;;;9.67;;
6017;SDS011;3037;51.068;13.780;2023-04-21T07:49:08;16.40;;;9.00;;
6017;SDS011;3037;51.068;13.780;2023-04-21T07:51:34;14.30;;;8.37;;
6017;SDS011;3037;51.068;13.780;2023-04-21T07:54:00;21.23;;;10.00;;
6017;SDS011;3037;51.068;13.780;2023-04-21T07:56:25;14.73;;;9.10;;
6017;SDS011;3037;51.068;13.780;2023-04-21T07:58:51;19.73;;;8.20;;
6017;SDS011;3037;51.068;13.780;2023-04-21T08:01:16;24.03;;;9.70;;
6017;SDS011;3037;51.068;13.780;2023-04-21T08:03:42;14.10;;;8.70;;
6017;SDS011;3037;51.068;13.780;2023-04-21T08:06:08;20.97;;;9.10;;
6017;SDS011;3037;51.068;13.780;2023-04-21T08:08:33;12.23;;;8.20;;
6017;SDS011;3037;51.068;13.780;2023-04-21T08:10:59;13.77;;;8.60;;
6017;SDS011;3037;51.068;13.780;2023-04-21T08:13:25;15.40;;;7.87;;
6017;SDS011;3037;51.068;13.780;2023-04-21T08:15:51;17.60;;;8.37;;
6017;SDS011;3037;51.068;13.780;2023-04-21T08:18:17;15.93;;;8.50;;
6017;SDS011;3037;51.068;13.780;2023-04-21T08:20:43;10.50;;;6.80;;
6017;SDS011;3037;51.068;13.780;2023-04-21T08:23:09;12.00;;;7.20;;
6017;SDS011;3037;51.068;13.780;2023-04-21T08:25:34;10.20;;;6.53;;
6017;SDS011;3037;51.068;13.780;2023-04-21T08:28:00;16.50;;;5.83;;
6017;SDS011;3037;51.068;13.780;2023-04-21T08:30:26;6.57;;;5.80;;
6017;SDS011;3037;51.068;13.780;2023-04-21T08:32:52;9.33;;;4.83;;
6017;SDS011;3037;51.068;13.780;2023-04-21T08:35:17;25.80;;;4.50;;
6017;SDS011;3037;51.068;13.780;2023-04-21T08:37:43;9.93;;;3.70;;
6017;SDS011;3037;51.068;13.780;2023-04-21T08:40:09;11.50;;;3.70;;
6017;SDS011;3037;51.068;13.780;2023-04-21T08:42:35;8.90;;;3.70;;
6017;SDS011;3037;51.068;13.780;2023-04-21T08:45:02;12.37;;;3.50;;
6017;SDS011;3037;51.068;13.780;2023-04-21T08:47:29;14.30;;;4.10;;
6017;SDS011;3037;51.068;13.780;2023-04-21T08:49:55;14.07;;;3.07;;
6017;SDS011;3037;51.068;13.780;2023-04-21T08:52:22;17.53;;;3.50;;
6017;SDS011;3037;51.068;13.780;2023-04-21T08:54:48;12.93;;;3.60;;
6017;SDS011;3037;51.068;13.780;2023-04-21T08:57:16;7.63;;;2.70;;
6017;SDS011;3037;51.068;13.780;2023-04-21T08:59:45;9.03;;;4.40;;
6017;SDS011;3037;51.068;13.780;2023-04-21T09:02:14;13.97;;;3.37;;
6017;SDS011;3037;51.068;13.780;2023-04-21T09:04:45;9.97;;;3.73;;
6017;SDS011;3037;51.068;13.780;2023-04-21T09:07:31;6.10;;;3.37;;
6017;SDS011;3037;51.068;13.780;2023-04-21T09:09:58;9.13;;;3.77;;
6017;SDS011;3037;51.068;13.780;2023-04-21T09:12:24;16.43;;;4.00;;
6017;SDS011;3037;51.068;13.780;2023-04-21T09:14:51;14.37;;;3.87;;
6017;SDS011;3037;51.068;13.780;2023-04-21T09:17:17;4.97;;;3.47;;
6017;SDS011;3037;51.068;13.780;2023-04-21T09:19:44;10.60;;;3.40;;
6017;SDS011;3037;51.068;13.780;2023-04-21T09:22:13;5.40;;;3.53;;
6017;SDS011;3037;51.068;13.780;2023-04-21T09:24:44;7.30;;;3.70;;
6017;SDS011;3037;51.068;13.780;2023-04-21T09:27:16;6.87;;;3.37;;
6017;SDS011;3037;51.068;13.780;2023-04-21T09:29:45;11.63;;;3.17;;
6017;SDS011;3037;51.068;13.780;2023-04-21T09:32:18;16.33;;;3.47;;
6017;SDS011;3037;51.068;13.780;2023-04-21T09:34:44;7.87;;;3.20;;
6017;SDS011;3037;51.068;13.780;2023-04-21T09:37:10;14.30;;;3.30;;
6017;SDS011;3037;51.068;13.780;2023-04-21T09:39:37;9.33;;;3.50;;
6017;SDS011;3037;51.068;13.780;2023-04-21T09:42:02;9.00;;;3.83;;
6017;SDS011;3037;51.068;13.780;2023-04-21T09:44:28;8.30;;;3.40;;
6017;SDS011;3037;51.068;13.780;2023-04-21T09:46:56;7.67;;;4.50;;
6017;SDS011;3037;51.068;13.780;2023-04-21T09:49:28;5.87;;;3.50;;
6017;SDS011;3037;51.068;13.780;2023-04-21T09:51:56;11.60;;;3.90;;
6017;SDS011;3037;51.068;13.780;2023-04-21T09:54:27;8.60;;;3.00;;
6017;SDS011;3037;51.068;13.780;2023-04-21T09:56:55;5.63;;;3.67;;
6017;SDS011;3037;51.068;13.780;2023-04-21T09:59:36;6.93;;;3.67;;
6017;SDS011;3037;51.068;13.780;2023-04-21T10:02:05;7.13;;;3.37;;
6017;SDS011;3037;51.068;13.780;2023-04-21T10:04:31;6.27;;;3.77;;
6017;SDS011;3037;51.068;13.780;2023-04-21T10:06:58;7.33;;;3.53;;
6017;SDS011;3037;51.068;13.780;2023-04-21T10:09:25;10.60;;;3.27;;
6017;SDS011;3037;51.068;13.780;2023-04-21T10:11:55;17.00;;;3.87;;
6017;SDS011;3037;51.068;13.780;2023-04-21T10:14:21;5.17;;;3.90;;
6017;SDS011;3037;51.068;13.780;2023-04-21T10:17:05;13.43;;;3.30;;
6017;SDS011;3037;51.068;13.780;2023-04-21T10:19:32;5.90;;;3.27;;
6017;SDS011;3037;51.068;13.780;2023-04-21T10:22:06;11.43;;;2.50;;
6017;SDS011;3037;51.068;13.780;2023-04-21T10:24:36;7.90;;;3.10;;
6017;SDS011;3037;51.068;13.780;2023-04-21T10:27:02;7.20;;;2.80;;
6017;SDS011;3037;51.068;13.780;2023-04-21T10:29:28;4.30;;;2.60;;
6017;SDS011;3037;51.068;13.780;2023-04-21T10:31:55;11.23;;;2.73;;
6017;SDS011;3037;51.068;13.780;2023-04-21T10:39:29;11.70;;;3.23;;
6017;SDS011;3037;51.068;13.780;2023-04-21T10:41:57;7.23;;;2.90;;
6017;SDS011;3037;51.068;13.780;2023-04-21T10:47:24;12.70;;;3.90;;
6017;SDS011;3037;51.068;13.780;2023-04-21T10:49:51;9.27;;;2.50;;
6017;SDS011;3037;51.068;13.780;2023-04-21T10:52:17;7.50;;;2.40;;
6017;SDS011;3037;51.068;13.780;2023-04-21T10:57:14;8.33;;;2.50;;
6017;SDS011;3037;51.068;13.780;2023-04-21T10:59:41;4.33;;;2.20;;
6017;SDS011;3037;51.068;13.780;2023-04-21T11:02:11;6.00;;;2.77;;
6017;SDS011;3037;51.068;13.780;2023-04-21T11:04:38;10.67;;;2.80;;
6017;SDS011;3037;51.068;13.780;2023-04-21T11:09:37;4.77;;;2.67;;
6017;SDS011;3037;51.068;13.780;2023-04-21T11:12:04;13.57;;;3.10;;
6017;SDS011;3037;51.068;13.780;2023-04-21T11:14:38;7.40;;;2.40;;
6017;SDS011;3037;51.068;13.780;2023-04-21T11:17:07;7.40;;;2.40;;
6017;SDS011;3037;51.068;13.780;2023-04-21T11:19:36;5.97;;;3.07;;
6017;SDS011;3037;51.068;13.780;2023-04-21T11:22:02;9.80;;;2.80;;
6017;SDS011;3037;51.068;13.780;2023-04-21T11:24:28;9.73;;;2.60;;
6017;SDS011;3037;51.068;13.780;2023-04-21T11:26:55;10.40;;;2.47;;
6017;SDS011;3037;51.068;13.780;2023-04-21T11:29:20;13.73;;;3.33;;
6017;SDS011;3037;51.068;13.780;2023-04-21T11:31:46;7.13;;;2.10;;
6017;SDS011;3037;51.068;13.780;2023-04-21T11:34:14;8.33;;;2.07;;
6017;SDS011;3037;51.068;13.780;2023-04-21T11:36:41;13.40;;;2.90;;
6017;SDS011;3037;51.068;13.780;2023-04-21T11:39:08;8.07;;;2.50;;
6017;SDS011;3037;51.068;13.780;2023-04-21T11:41:38;8.37;;;2.70;;
6017;SDS011;3037;51.068;13.780;2023-04-21T11:44:05;13.13;;;2.53;;
6017;SDS011;3037;51.068;13.780;2023-04-21T11:46:31;2.80;;;2.57;;
6017;SDS011;3037;51.068;13.780;2023-04-21T11:49:01;10.83;;;2.50;;
6017;SDS011;3037;51.068;13.780;2023-04-21T11:51:46;10.73;;;3.00;;
6017;SDS011;3037;51.068;13.780;2023-04-21T11:54:16;4.27;;;2.37;;
6017;SDS011;3037;51.068;13.780;2023-04-21T11:56:44;10.83;;;2.60;;
6017;SDS011;3037;51.068;13.780;2023-04-21T11:59:12;11.07;;;2.50;;
6017;SDS011;3037;51.068;13.780;2023-04-21T12:01:42;15.20;;;3.67;;
6017;SDS011;3037;51.068;13.780;2023-04-21T12:04:13;13.80;;;2.60;;
6017;SDS011;3037;51.068;13.780;2023-04-21T12:06:40;6.70;;;2.93;;
6017;SDS011;3037;51.068;13.780;2023-04-21T12:09:06;12.30;;;2.83;;
6017;SDS011;3037;51.068;13.780;2023-04-21T12:11:32;4.83;;;2.27;;
6017;SDS011;3037;51.068;13.780;2023-04-21T12:13:59;6.80;;;3.07;;
6017;SDS011;3037;51.068;13.780;2023-04-21T12:16:25;11.33;;;3.00;;
6017;SDS011;3037;51.068;13.780;2023-04-21T12:18:52;8.63;;;2.93;;
6017;SDS011;3037;51.068;13.780;2023-04-21T12:21:18;11.50;;;2.50;;
6017;SDS011;3037;51.068;13.780;2023-04-21T12:23:44;7.80;;;3.30;;
6017;SDS011;3037;51.068;13.780;2023-04-21T12:26:10;8.70;;;2.57;;
6017;SDS011;3037;51.068;13.780;2023-04-21T12:28:39;10.40;;;3.20;;
6017;SDS011;3037;51.068;13.780;2023-04-21T12:31:04;21.63;;;2.90;;
6017;SDS011;3037;51.068;13.780;2023-04-21T12:33:30;15.23;;;2.73;;
6017;SDS011;3037;51.068;13.780;2023-04-21T12:35:56;7.90;;;2.50;;
6017;SDS011;3037;51.068;13.780;2023-04-21T12:38:21;8.03;;;2.77;;
6017;SDS011;3037;51.068;13.780;2023-04-21T12:40:47;7.77;;;2.50;;
6017;SDS011;3037;51.068;13.780;2023-04-21T12:43:12;9.00;;;2.27;;
6017;SDS011;3037;51.068;13.780;2023-04-21T12:45:38;6.87;;;2.43;;
6017;SDS011;3037;51.068;13.780;2023-04-21T12:48:04;11.03;;;2.57;;
6017;SDS011;3037;51.068;13.780;2023-04-21T12:50:30;12.50;;;2.97;;
6017;SDS011;3037;51.068;13.780;2023-04-21T12:52:56;8.13;;;3.17;;
6017;SDS011;3037;51.068;13.780;2023-04-21T12:55:21;11.00;;;2.70;;
6017;SDS011;3037;51.068;13.780;2023-04-21T12:57:47;5.90;;;2.40;;
6017;SDS011;3037;51.068;13.780;2023-04-21T13:00:14;13.63;;;3.00;;
6017;SDS011;3037;51.068;13.780;2023-04-21T13:02:40;8.83;;;3.13;;
6017;SDS011;3037;51.068;13.780;2023-04-21T13:05:06;10.97;;;3.00;;
6017;SDS011;3037;51.068;13.780;2023-04-21T13:07:33;8.90;;;2.50;;
6017;SDS011;3037;51.068;13.780;2023-04-21T13:09:59;5.20;;;2.93;;
6017;SDS011;3037;51.068;13.780;2023-04-21T13:12:25;8.60;;;2.83;;
6017;SDS011;3037;51.068;13.780;2023-04-21T13:14:50;7.10;;;2.40;;
6017;SDS011;3037;51.068;13.780;2023-04-21T13:17:16;10.60;;;3.53;;
6017;SDS011;3037;51.068;13.780;2023-04-21T13:19:41;8.33;;;2.73;;
6017;SDS011;3037;51.068;13.780;2023-04-21T13:22:07;5.30;;;2.57;;
6017;SDS011;3037;51.068;13.780;2023-04-21T13:24:33;8.93;;;3.30;;
6017;SDS011;3037;51.068;13.780;2023-04-21T13:26:59;10.07;;;3.30;;
6017;SDS011;3037;51.068;13.780;2023-04-21T13:29:25;8.03;;;4.50;;
6017;SDS011;3037;51.068;13.780;2023-04-21T13:31:53;16.37;;;4.60;;
6017;SDS011;3037;51.068;13.780;2023-04-21T13:34:22;5.03;;;4.00;;
6017;SDS011;3037;51.068;13.780;2023-04-21T13:36:48;11.10;;;3.90;;
6017;SDS011;3037;51.068;13.780;2023-04-21T13:39:13;16.53;;;3.80;;
6017;SDS011;3037;51.068;13.780;2023-04-21T13:41:39;6.00;;;3.50;;
6017;SDS011;3037;51.068;13.780;2023-04-21T13:44:05;12.47;;;4.27;;
6017;SDS011;3037;51.068;13.780;2023-04-21T13:46:30;7.00;;;3.10;;
6017;SDS011;3037;51.068;13.780;2023-04-21T13:48:56;6.53;;;3.13;;
6017;SDS011;3037;51.068;13.780;2023-04-21T13:51:22;7.10;;;3.20;;
6017;SDS011;3037;51.068;13.780;2023-04-21T13:53:47;4.40;;;3.43;;
6017;SDS011;3037;51.068;13.780;2023-04-21T13:56:13;6.20;;;3.73;;
6017;SDS011;3037;51.068;13.780;2023-04-21T13:58:38;12.50;;;3.77;;
6017;SDS011;3037;51.068;13.780;2023-04-21T14:01:04;3.60;;;3.30;;
6017;SDS011;3037;51.068;13.780;2023-04-21T14:03:30;13.87;;;3.77;;
6017;SDS011;3037;51.068;13.780;2023-04-21T14:05:55;5.70;;;3.30;;
6017;SDS011;3037;51.068;13.780;2023-04-21T14:08:21;4.50;;;2.73;;
6017;SDS011;3037;51.068;13.780;2023-04-21T14:10:47;8.43;;;3.03;;
6017;SDS011;3037;51.068;13.780;2023-04-21T14:13:12;6.70;;;3.33;;
6017;SDS011;3037;51.068;13.780;2023-04-21T14:15:38;3.73;;;3.10;;
6017;SDS011;3037;51.068;13.780;2023-04-21T14:18:03;9.33;;;4.37;;
6017;SDS011;3037;51.068;13.780;2023-04-21T14:20:29;4.87;;;3.20;;
6017;SDS011;3037;51.068;13.780;2023-04-21T14:22:55;14.40;;;3.57;;
6017;SDS011;3037;51.068;13.780;2023-04-21T14:25:20;3.70;;;2.83;;
6017;SDS011;3037;51.068;13.780;2023-04-21T14:27:46;4.80;;;3.40;;
6017;SDS011;3037;51.068;13.780;2023-04-21T14:30:12;11.37;;;4.00;;
6017;SDS011;3037;51.068;13.780;2023-04-21T14:32:38;10.20;;;3.40;;
6017;SDS011;3037;51.068;13.780;2023-04-21T14:35:09;6.70;;;2.63;;
6017;SDS011;3037;51.068;13.780;2023-04-21T14:37:35;9.10;;;3.67;;
6017;SDS011;3037;51.068;13.780;2023-04-21T14:40:01;5.47;;;2.87;;
6017;SDS011;3037;51.068;13.780;2023-04-21T14:42:27;11.10;;;4.10;;
6017;SDS011;3037;51.068;13.780;2023-04-21T14:44:53;4.83;;;3.37;;
6017;SDS011;3037;51.068;13.780;2023-04-21T14:47:19;4.67;;;3.43;;
6017;SDS011;3037;51.068;13.780;2023-04-21T14:49:45;4.17;;;2.63;;
6017;SDS011;3037;51.068;13.780;2023-04-21T14:52:12;13.90;;;4.00;;